createdAt,value
2018-11-29T00:01:04.511Z,86.35
2018-11-29T00:03:33.480Z,86.31
2018-11-29T00:06:02.414Z,86.53
2018-11-29T00:08:31.361Z,86.61
2018-11-29T00:11:00.271Z,86.99
2018-11-29T00:13:29.216Z,86.99
2018-11-29T00:15:58.132Z,87.27
2018-11-29T00:18:27.085Z,87.23
2018-11-29T00:20:56.039Z,87.02
2018-11-29T00:23:24.971Z,87.38
2018-11-29T00:25:53.878Z,86.79
2018-11-29T00:28:22.848Z,87.16
2018-11-29T00:30:51.783Z,87.03
2018-11-29T00:33:20.779Z,87.34
2018-11-29T00:35:49.741Z,87.11
2018-11-29T00:38:18.647Z,87.04
2018-11-29T00:40:47.543Z,87.16
2018-11-29T00:43:16.483Z,86.56
2018-11-29T00:45:45.418Z,87.08
2018-11-29T00:48:14.366Z,86.71
2018-11-29T00:50:43.295Z,86.63
2018-11-29T00:53:12.197Z,86.14
2018-11-29T00:55:41.218Z,86.72
2018-11-29T00:58:10.142Z,86.02
2018-11-29T01:00:39.079Z,86.59
2018-11-29T01:03:08.030Z,86.55
2018-11-29T01:05:36.964Z,86.53
2018-11-29T01:08:06.286Z,86.61
2018-11-29T01:10:35.245Z,86.67
2018-11-29T01:13:04.260Z,86.60
2018-11-29T01:15:33.258Z,85.62
2018-11-29T01:18:02.262Z,86.40
2018-11-29T01:20:31.289Z,86.49
2018-11-29T01:23:01.049Z,87.07
2018-11-29T01:25:29.989Z,86.39
2018-11-29T01:27:58.977Z,86.04
2018-11-29T01:30:27.930Z,86.30
2018-11-29T01:32:57.138Z,86.94
2018-11-29T01:35:26.378Z,86.44
2018-11-29T01:37:55.540Z,86.17
2018-11-29T01:40:24.456Z,85.22
2018-11-29T01:42:56.736Z,85.64
2018-11-29T01:45:32.581Z,85.49
2018-11-29T01:48:01.544Z,85.14
2018-11-29T01:50:30.500Z,84.77
2018-11-29T01:52:59.478Z,85.09
2018-11-29T01:55:28.498Z,84.85
2018-11-29T01:57:57.565Z,85.38
2018-11-29T02:00:32.000Z,85.61
2018-11-29T02:03:00.947Z,84.81
2018-11-29T02:05:29.879Z,84.61
2018-11-29T02:07:58.802Z,84.59
2018-11-29T02:10:31.910Z,84.45
2018-11-29T02:13:00.893Z,84.57
2018-11-29T02:15:29.853Z,84.62
2018-11-29T02:17:58.757Z,84.99
2018-11-29T02:20:27.676Z,84.17
2018-11-29T02:22:56.671Z,84.37
2018-11-29T02:25:25.597Z,85.17
2018-11-29T02:27:54.579Z,84.16
2018-11-29T02:30:23.855Z,84.57
2018-11-29T02:32:52.888Z,84.15
2018-11-29T02:35:21.792Z,83.66
2018-11-29T02:37:50.767Z,84.40
2018-11-29T02:40:19.698Z,84.25
2018-11-29T02:42:49.506Z,84.10
2018-11-29T02:45:21.374Z,83.95
2018-11-29T02:47:50.354Z,83.76
2018-11-29T02:50:19.348Z,83.42
2018-11-29T02:52:48.257Z,84.33
2018-11-29T02:55:17.201Z,84.32
2018-11-29T02:57:46.179Z,83.61
2018-11-29T03:00:15.983Z,83.79
2018-11-29T03:02:44.888Z,83.44
2018-11-29T03:05:13.973Z,84.07
2018-11-29T03:07:42.900Z,83.62
2018-11-29T03:10:12.763Z,84.06
2018-11-29T03:12:41.920Z,84.53
2018-11-29T03:15:14.857Z,84.35
2018-11-29T03:17:44.348Z,83.73
2018-11-29T03:20:14.033Z,83.94
2018-11-29T03:22:43.076Z,84.25
2018-11-29T03:25:13.992Z,83.73
2018-11-29T03:27:43.051Z,83.91
2018-11-29T03:30:12.982Z,83.56
2018-11-29T03:32:41.883Z,84.11
2018-11-29T03:35:11.683Z,84.26
2018-11-29T03:37:40.914Z,84.16
2018-11-29T03:40:16.587Z,84.61
2018-11-29T03:42:46.025Z,83.95
2018-11-29T03:45:15.840Z,84.34
2018-11-29T03:47:45.163Z,84.59
2018-11-29T03:50:15.059Z,84.23
2018-11-29T03:52:44.036Z,84.89
2018-11-29T03:55:12.971Z,84.59
2018-11-29T03:57:41.895Z,84.59
2018-11-29T04:00:13.889Z,84.70
2018-11-29T04:02:43.005Z,85.73
2018-11-29T04:05:11.947Z,85.46
2018-11-29T04:07:40.919Z,85.63
2018-11-29T04:10:12.084Z,85.42
2018-11-29T04:12:41.286Z,85.45
2018-11-29T04:15:11.727Z,85.19
2018-11-29T04:17:41.345Z,84.88
2018-11-29T04:20:14.383Z,84.19
2018-11-29T04:22:47.832Z,85.00
2018-11-29T04:25:20.056Z,84.13
2018-11-29T04:27:49.000Z,84.26
2018-11-29T04:30:18.051Z,84.76
2018-11-29T04:32:47.010Z,84.47
2018-11-29T04:35:15.924Z,85.09
2018-11-29T04:37:44.844Z,85.20
2018-11-29T04:40:16.641Z,84.71
2018-11-29T04:42:45.673Z,85.17
2018-11-29T04:45:15.623Z,84.67
2018-11-29T04:47:44.714Z,84.79
2018-11-29T04:50:13.911Z,84.68
2018-11-29T04:52:42.853Z,85.49
2018-11-29T04:55:12.124Z,85.06
2018-11-29T04:57:41.052Z,86.00
2018-11-29T05:00:15.893Z,85.83
2018-11-29T05:02:45.030Z,86.50
2018-11-29T05:05:14.306Z,87.45
2018-11-29T05:07:43.222Z,87.62
2018-11-29T05:10:13.235Z,87.89
2018-11-29T05:12:42.165Z,87.77
2018-11-29T05:15:11.591Z,87.82
2018-11-29T05:17:40.557Z,88.52
2018-11-29T05:20:09.549Z,88.60
2018-11-29T05:22:38.557Z,88.55
2018-11-29T05:25:08.430Z,88.44
2018-11-29T05:27:37.575Z,89.06
2018-11-29T05:30:10.195Z,88.35
2018-11-29T05:32:39.122Z,88.59
2018-11-29T05:35:09.526Z,88.44
2018-11-29T05:37:38.460Z,88.53
2018-11-29T05:40:10.316Z,88.61
2018-11-29T05:42:39.262Z,89.18
2018-11-29T05:45:09.329Z,88.97
2018-11-29T05:47:38.304Z,88.89
2018-11-29T05:50:09.329Z,89.21
2018-11-29T05:52:38.270Z,88.75
2018-11-29T05:55:09.798Z,88.47
2018-11-29T05:57:38.731Z,88.99
2018-11-29T06:00:11.468Z,88.31
2018-11-29T06:02:40.436Z,88.96
2018-11-29T06:05:21.003Z,89.09
2018-11-29T06:07:49.960Z,89.08
2018-11-29T06:10:20.499Z,89.10
2018-11-29T06:12:49.546Z,88.76
2018-11-29T06:15:18.466Z,88.72
2018-11-29T06:17:47.439Z,88.80
2018-11-29T06:20:17.320Z,88.80
2018-11-29T06:22:46.297Z,89.34
2018-11-29T06:25:15.292Z,89.44
2018-11-29T06:27:44.556Z,89.18
2018-11-29T06:30:21.286Z,89.93
2018-11-29T06:32:54.449Z,89.73
2018-11-29T06:35:23.388Z,89.74
2018-11-29T06:37:52.326Z,89.01
2018-11-29T06:40:21.256Z,89.48
2018-11-29T06:42:50.439Z,89.83
2018-11-29T06:45:20.143Z,89.85
2018-11-29T06:47:51.267Z,90.47
2018-11-29T06:50:20.269Z,90.21
2018-11-29T06:52:50.390Z,90.29
2018-11-29T06:55:20.479Z,89.99
2018-11-29T06:57:49.474Z,90.05
2018-11-29T07:00:28.195Z,89.42
2018-11-29T07:02:57.135Z,89.60
2018-11-29T07:05:26.091Z,89.90
2018-11-29T07:07:54.993Z,89.41
2018-11-29T07:10:29.164Z,90.13
2018-11-29T07:12:58.075Z,90.11
2018-11-29T07:15:27.011Z,90.39
2018-11-29T07:17:56.087Z,91.20
2018-11-29T07:20:25.072Z,90.24
2018-11-29T07:22:54.018Z,90.57
2018-11-29T07:25:23.027Z,91.20
2018-11-29T07:27:52.158Z,91.48
2018-11-29T07:30:21.213Z,92.42
2018-11-29T07:32:50.143Z,93.33
2018-11-29T07:35:19.060Z,93.43
2018-11-29T07:37:48.001Z,93.60
2018-11-29T07:40:18.489Z,93.59
2018-11-29T07:42:48.822Z,93.59
2018-11-29T07:45:18.824Z,93.19
2018-11-29T07:47:47.815Z,93.92
2018-11-29T07:50:19.760Z,93.79
2018-11-29T07:52:48.682Z,93.12
2018-11-29T07:55:18.638Z,94.33
2018-11-29T07:57:48.617Z,93.98
2018-11-29T08:00:17.759Z,93.86
2018-11-29T08:02:46.741Z,94.25
2018-11-29T08:05:16.122Z,94.65
2018-11-29T08:07:47.632Z,94.95
2018-11-29T08:10:26.966Z,94.82
2018-11-29T08:12:55.917Z,94.62
2018-11-29T08:15:24.897Z,94.98
2018-11-29T08:17:53.825Z,94.68
2018-11-29T08:20:22.857Z,94.67
2018-11-29T08:22:51.753Z,94.37
2018-11-29T08:25:20.757Z,94.65
2018-11-29T08:27:52.774Z,94.80
2018-11-29T08:30:21.736Z,94.74
2018-11-29T08:32:50.753Z,94.67
2018-11-29T08:35:19.770Z,94.68
2018-11-29T08:37:48.872Z,94.17
2018-11-29T08:40:18.912Z,94.21
2018-11-29T08:42:47.957Z,94.16
2018-11-29T08:45:16.917Z,94.48
2018-11-29T08:47:45.909Z,94.19
2018-11-29T08:50:15.299Z,94.51
2018-11-29T08:52:45.202Z,94.06
2018-11-29T08:55:17.965Z,94.65
2018-11-29T08:57:47.577Z,94.45
2018-11-29T09:00:20.339Z,94.53
2018-11-29T09:02:52.318Z,94.91
2018-11-29T09:05:21.382Z,94.32
2018-11-29T09:07:50.524Z,94.91
2018-11-29T09:10:22.426Z,94.81
2018-11-29T09:12:51.446Z,94.40
2018-11-29T09:15:20.400Z,94.57
2018-11-29T09:17:49.612Z,94.44
2018-11-29T09:20:20.454Z,94.67
2018-11-29T09:22:49.407Z,94.40
2018-11-29T09:25:21.307Z,95.21
2018-11-29T09:27:50.214Z,94.81
2018-11-29T09:30:21.028Z,94.68
2018-11-29T09:32:51.038Z,94.71
2018-11-29T09:35:19.943Z,95.00
2018-11-29T09:37:48.894Z,95.02
2018-11-29T09:40:18.498Z,94.92
2018-11-29T09:42:47.588Z,94.99
2018-11-29T09:45:19.388Z,95.24
2018-11-29T09:47:49.389Z,95.14
2018-11-29T09:50:18.500Z,94.86
2018-11-29T09:52:47.454Z,94.86
2018-11-29T09:55:17.221Z,95.57
2018-11-29T09:57:47.137Z,95.04
2018-11-29T10:00:28.185Z,95.55
2018-11-29T10:03:11.343Z,95.08
2018-11-29T10:05:41.313Z,95.75
2018-11-29T10:08:12.110Z,95.76
2018-11-29T10:10:42.119Z,95.71
2018-11-29T10:13:11.126Z,95.45
2018-11-29T10:15:40.045Z,95.15
2018-11-29T10:18:10.225Z,95.27
2018-11-29T10:20:39.184Z,95.81
2018-11-29T10:23:09.038Z,95.50
2018-11-29T10:25:39.318Z,95.46
2018-11-29T10:28:10.840Z,95.65
2018-11-29T10:30:47.537Z,95.49
2018-11-29T10:33:16.493Z,95.29
2018-11-29T10:35:45.444Z,95.96
2018-11-29T10:38:14.388Z,95.85
2018-11-29T10:40:43.417Z,95.70
2018-11-29T10:43:12.331Z,95.76
2018-11-29T10:45:41.288Z,95.81
2018-11-29T10:48:17.088Z,95.30
2018-11-29T10:50:46.013Z,96.44
2018-11-29T10:53:14.953Z,95.58
2018-11-29T10:55:43.901Z,95.47
2018-11-29T10:58:12.832Z,96.63
2018-11-29T11:00:47.237Z,95.94
2018-11-29T11:03:18.724Z,96.39
2018-11-29T11:05:49.605Z,96.08
2018-11-29T11:08:18.543Z,96.79
2018-11-29T11:10:47.449Z,95.97
2018-11-29T11:13:16.399Z,96.73
2018-11-29T11:15:54.908Z,96.30
2018-11-29T11:18:23.857Z,96.30
2018-11-29T11:20:52.789Z,96.52
2018-11-29T11:23:21.760Z,96.91
2018-11-29T11:25:50.708Z,96.28
2018-11-29T11:28:19.644Z,96.65
2018-11-29T11:30:48.551Z,96.54
2018-11-29T11:33:17.533Z,96.47
2018-11-29T11:35:46.463Z,96.72
2018-11-29T11:38:15.433Z,96.68
2018-11-29T11:40:44.393Z,96.64
2018-11-29T11:43:13.351Z,97.35
2018-11-29T11:45:42.310Z,97.08
2018-11-29T11:48:11.235Z,97.08
2018-11-29T11:50:40.170Z,97.25
2018-11-29T11:53:09.656Z,97.02
2018-11-29T11:55:38.695Z,97.21
2018-11-29T11:58:08.261Z,96.95
2018-11-29T12:00:37.692Z,96.54
2018-11-29T12:03:11.916Z,96.86
2018-11-29T12:05:40.846Z,96.74
2018-11-29T12:08:09.797Z,97.25
2018-11-29T12:10:39.847Z,97.05
2018-11-29T12:13:08.880Z,96.70
2018-11-29T12:15:38.303Z,96.88
2018-11-29T12:18:09.595Z,96.73
2018-11-29T12:20:38.578Z,97.01
2018-11-29T12:23:08.272Z,97.27
2018-11-29T12:25:37.271Z,96.83
2018-11-29T12:28:06.470Z,96.75
2018-11-29T12:30:37.603Z,97.04
2018-11-29T12:33:07.635Z,96.99
2018-11-29T12:35:36.594Z,96.96
2018-11-29T12:38:05.695Z,97.04
2018-11-29T12:40:34.633Z,97.29
2018-11-29T12:43:03.530Z,96.88
2018-11-29T12:45:32.484Z,96.90
2018-11-29T12:48:01.428Z,97.30
2018-11-29T12:50:30.339Z,96.54
2018-11-29T12:52:59.236Z,96.89
2018-11-29T12:55:28.171Z,96.25
2018-11-29T12:58:05.431Z,96.32
2018-11-29T13:00:26.217Z,96.49
2018-11-29T13:02:56.963Z,96.22
2018-11-29T13:05:26.652Z,96.54
2018-11-29T13:07:55.620Z,96.55
2018-11-29T13:10:25.752Z,96.47
2018-11-29T13:12:55.122Z,95.61
2018-11-29T13:15:26.424Z,96.46
2018-11-29T13:17:56.010Z,95.70
2018-11-29T13:20:24.936Z,96.17
2018-11-29T13:22:53.877Z,96.40
2018-11-29T13:25:23.875Z,96.69
2018-11-29T13:27:52.829Z,95.97
2018-11-29T13:30:22.485Z,96.58
2018-11-29T13:32:53.458Z,96.38
2018-11-29T13:35:24.677Z,95.97
2018-11-29T13:38:11.825Z,95.73
2018-11-29T13:40:42.071Z,95.89
2018-11-29T13:43:10.965Z,96.05
2018-11-29T13:45:39.932Z,95.80
2018-11-29T13:48:09.848Z,95.20
2018-11-29T13:50:39.469Z,95.68
2018-11-29T13:53:08.382Z,95.14
2018-11-29T13:55:38.096Z,95.62
2018-11-29T13:58:06.998Z,95.58
2018-11-29T14:00:36.671Z,95.43
2018-11-29T14:03:08.302Z,94.64
2018-11-29T14:05:37.467Z,95.08
2018-11-29T14:08:07.497Z,94.74
2018-11-29T14:10:36.594Z,94.34
2018-11-29T14:13:07.136Z,94.18
2018-11-29T14:15:36.268Z,94.08
2018-11-29T14:18:05.205Z,94.87
2018-11-29T14:20:35.524Z,94.63
2018-11-29T14:23:03.150Z,94.30
2018-11-29T14:25:32.124Z,94.44
2018-11-29T14:28:01.094Z,94.40
2018-11-29T14:30:30.645Z,94.08
2018-11-29T14:33:00.568Z,93.70
2018-11-29T14:35:29.493Z,93.93
2018-11-29T14:37:58.441Z,93.72
2018-11-29T14:40:28.894Z,93.39
2018-11-29T14:42:57.798Z,93.33
2018-11-29T14:45:27.218Z,93.16
2018-11-29T14:47:56.462Z,93.08
2018-11-29T14:50:27.655Z,92.51
2018-11-29T14:52:56.672Z,92.94
2018-11-29T14:55:25.598Z,93.13
2018-11-29T14:57:54.604Z,93.25
2018-11-29T15:00:23.503Z,92.84
2018-11-29T15:02:52.631Z,92.41
2018-11-29T15:05:33.744Z,92.31
2018-11-29T15:08:02.704Z,92.17
2018-11-29T15:10:31.619Z,91.83
2018-11-29T15:13:00.582Z,92.38
2018-11-29T15:15:29.481Z,92.19
2018-11-29T15:17:58.431Z,91.45
2018-11-29T15:20:29.063Z,91.75
2018-11-29T15:22:58.021Z,91.94
2018-11-29T15:25:26.978Z,91.36
2018-11-29T15:27:55.895Z,91.55
2018-11-29T15:30:25.067Z,91.30
2018-11-29T15:32:54.003Z,91.42
2018-11-29T15:35:22.914Z,91.52
2018-11-29T15:37:52.169Z,91.40
2018-11-29T15:40:23.991Z,91.51
2018-11-29T15:42:53.213Z,90.81
2018-11-29T15:45:24.537Z,91.13
2018-11-29T15:47:53.485Z,91.29
2018-11-29T15:50:22.375Z,91.44
2018-11-29T15:52:51.482Z,90.66
2018-11-29T15:55:23.091Z,90.54
2018-11-29T15:57:53.305Z,90.91
2018-11-29T16:00:31.387Z,90.38
2018-11-29T16:03:02.638Z,91.48
2018-11-29T16:05:31.571Z,91.43
2018-11-29T16:08:00.479Z,90.39
2018-11-29T16:10:29.411Z,90.60
2018-11-29T16:12:58.366Z,90.54
2018-11-29T16:15:27.316Z,90.07
2018-11-29T16:17:56.285Z,90.25
2018-11-29T16:20:29.613Z,90.47
2018-11-29T16:22:58.564Z,90.64
2018-11-29T16:25:41.860Z,90.45
2018-11-29T16:28:11.629Z,89.75
2018-11-29T16:30:43.796Z,89.35
2018-11-29T16:33:16.603Z,90.26
2018-11-29T16:35:45.544Z,89.91
2018-11-29T16:38:14.483Z,90.19
2018-11-29T16:40:43.374Z,90.22
2018-11-29T16:43:12.308Z,89.26
2018-11-29T16:45:41.245Z,89.79
2018-11-29T16:48:10.205Z,90.01
2018-11-29T16:50:39.179Z,89.73
2018-11-29T16:53:08.332Z,89.49
2018-11-29T16:55:37.650Z,89.35
2018-11-29T16:58:11.542Z,89.16
2018-11-29T17:00:40.464Z,88.77
2018-11-29T17:03:09.413Z,89.21
2018-11-29T17:05:38.366Z,88.76
2018-11-29T17:08:07.667Z,89.13
2018-11-29T17:10:36.628Z,89.06
2018-11-29T17:13:07.935Z,89.23
2018-11-29T17:15:36.862Z,88.92
2018-11-29T17:18:06.028Z,88.93
2018-11-29T17:20:35.482Z,89.13
2018-11-29T17:23:04.542Z,89.31
2018-11-29T17:25:33.497Z,89.28
2018-11-29T17:28:02.443Z,89.05
2018-11-29T17:30:31.454Z,88.79
2018-11-29T17:33:00.361Z,88.62
2018-11-29T17:35:29.292Z,89.16
2018-11-29T17:37:59.567Z,88.01
2018-11-29T17:40:28.522Z,88.75
2018-11-29T17:42:57.813Z,89.12
2018-11-29T17:45:28.732Z,88.79
2018-11-29T17:48:03.564Z,88.06
2018-11-29T17:50:34.899Z,88.34
2018-11-29T17:53:03.933Z,88.17
2018-11-29T17:55:32.860Z,88.61
2018-11-29T17:58:02.292Z,88.16
2018-11-29T18:00:33.519Z,88.02
2018-11-29T18:03:02.491Z,88.84
2018-11-29T18:05:31.461Z,89.52
2018-11-29T18:08:00.430Z,88.96
2018-11-29T18:10:31.132Z,89.80
2018-11-29T18:13:02.813Z,89.83
2018-11-29T18:15:33.498Z,90.17
2018-11-29T18:18:02.489Z,89.94
2018-11-29T18:20:31.417Z,89.53
2018-11-29T18:23:00.615Z,90.05
2018-11-29T18:25:29.595Z,89.61
2018-11-29T18:27:58.719Z,90.07
2018-11-29T18:30:27.677Z,89.75
2018-11-29T18:32:56.673Z,90.16
2018-11-29T18:35:25.634Z,89.80
2018-11-29T18:37:54.582Z,90.14
2018-11-29T18:40:23.512Z,90.59
2018-11-29T18:42:56.540Z,90.42
2018-11-29T18:45:25.600Z,90.50
2018-11-29T18:47:55.049Z,90.51
2018-11-29T18:50:24.913Z,90.49
2018-11-29T18:52:54.167Z,90.66
2018-11-29T18:55:24.302Z,90.04
2018-11-29T18:57:53.801Z,90.32
2018-11-29T19:00:25.934Z,90.10
2018-11-29T19:02:57.078Z,90.82
2018-11-29T19:05:23.948Z,90.33
2018-11-29T19:07:52.861Z,89.24
2018-11-29T19:10:22.002Z,89.94
2018-11-29T19:12:59.061Z,90.28
2018-11-29T19:15:27.991Z,90.09
2018-11-29T19:17:56.983Z,90.87
2018-11-29T19:20:25.982Z,91.00
2018-11-29T19:22:54.972Z,91.25
2018-11-29T19:25:23.896Z,90.93
2018-11-29T19:27:52.867Z,91.04
2018-11-29T19:30:27.054Z,91.00
2018-11-29T19:33:07.101Z,91.15
2018-11-29T19:35:36.025Z,90.64
2018-11-29T19:38:05.279Z,91.38
2018-11-29T19:40:34.251Z,91.42
2018-11-29T19:43:03.370Z,90.52
2018-11-29T19:45:40.991Z,90.57
2018-11-29T19:48:10.729Z,90.87
2018-11-29T19:50:39.683Z,91.15
2018-11-29T19:53:14.052Z,91.09
2018-11-29T19:55:43.057Z,90.68
2018-11-29T19:58:11.894Z,90.15
2018-11-29T20:00:40.864Z,90.45
2018-11-29T20:03:09.965Z,90.05
2018-11-29T20:05:38.843Z,89.80
2018-11-29T20:08:08.000Z,90.42
2018-11-29T20:10:38.143Z,90.00
2018-11-29T20:13:10.518Z,90.05
2018-11-29T20:15:43.945Z,90.22
2018-11-29T20:18:15.323Z,90.61
2018-11-29T20:20:44.379Z,90.54
2018-11-29T20:23:13.604Z,90.09
2018-11-29T20:25:43.823Z,89.38
2018-11-29T20:28:12.864Z,89.56
2018-11-29T20:30:41.830Z,90.03
2018-11-29T20:33:10.933Z,89.48
2018-11-29T20:35:40.466Z,89.70
2018-11-29T20:38:12.148Z,89.42
2018-11-29T20:40:43.078Z,89.39
2018-11-29T20:43:12.243Z,89.44
2018-11-29T20:45:44.588Z,89.69
2018-11-29T20:48:18.847Z,89.06
2018-11-29T20:50:48.257Z,89.11
2018-11-29T20:53:20.382Z,89.28
2018-11-29T20:55:50.680Z,88.81
2018-11-29T20:58:19.915Z,88.47
2018-11-29T21:00:48.918Z,89.22
2018-11-29T21:03:17.856Z,89.60
2018-11-29T21:05:46.809Z,89.05
2018-11-29T21:08:16.316Z,88.69
2018-11-29T21:10:45.238Z,89.65
2018-11-29T21:13:14.180Z,88.80
2018-11-29T21:15:43.345Z,88.37
2018-11-29T21:18:13.540Z,88.78
2018-11-29T21:20:43.207Z,88.65
2018-11-29T21:23:13.431Z,88.14
2018-11-29T21:25:42.363Z,88.34
2018-11-29T21:28:11.412Z,88.10
2018-11-29T21:30:40.357Z,88.39
2018-11-29T21:33:09.824Z,88.37
2018-11-29T21:35:38.783Z,88.62
2018-11-29T21:38:13.150Z,88.12
2018-11-29T21:40:44.772Z,88.18
2018-11-29T21:43:13.712Z,87.39
2018-11-29T21:45:42.697Z,87.84
2018-11-29T21:48:11.656Z,87.51
2018-11-29T21:50:40.616Z,87.81
2018-11-29T21:53:09.572Z,88.06
2018-11-29T21:55:38.796Z,87.18
2018-11-29T21:58:08.006Z,87.18
2018-11-29T22:00:37.310Z,87.36
2018-11-29T22:03:06.503Z,86.69
2018-11-29T22:05:35.745Z,87.88
2018-11-29T22:08:05.356Z,86.76
2018-11-29T22:10:34.589Z,86.88
2018-11-29T22:13:03.845Z,86.81
2018-11-29T22:15:33.144Z,87.12
2018-11-29T22:18:21.971Z,85.53
2018-11-29T22:20:55.498Z,86.06
2018-11-29T22:23:24.713Z,86.22
2018-11-29T22:25:54.904Z,85.79
2018-11-29T22:28:24.152Z,84.71
2018-11-29T22:30:54.021Z,84.89
2018-11-29T22:33:23.291Z,85.26
2018-11-29T22:35:52.508Z,84.65
2018-11-29T22:38:21.719Z,84.69
2018-11-29T22:40:50.737Z,84.13
2018-11-29T22:43:19.685Z,84.24
2018-11-29T22:45:48.634Z,84.03
2018-11-29T22:48:17.546Z,83.78
2018-11-29T22:50:46.503Z,84.38
2018-11-29T22:53:15.438Z,84.31
2018-11-29T22:55:44.370Z,84.39
2018-11-29T22:58:13.292Z,83.92
2018-11-29T23:00:47.673Z,83.53
2018-11-29T23:03:16.569Z,83.09
2018-11-29T23:05:45.516Z,82.43
2018-11-29T23:08:14.453Z,83.02
2018-11-29T23:10:43.374Z,82.68
2018-11-29T23:13:12.325Z,83.67
2018-11-29T23:15:41.267Z,83.59
2018-11-29T23:18:10.164Z,82.71
2018-11-29T23:20:39.073Z,83.29
2018-11-29T23:23:11.563Z,83.29
2018-11-29T23:25:41.668Z,82.97
2018-11-29T23:28:17.222Z,82.62
2018-11-29T23:30:51.971Z,82.77
2018-11-29T23:33:22.752Z,83.49
2018-11-29T23:35:52.623Z,82.40
2018-11-29T23:38:22.891Z,81.71
2018-11-29T23:40:51.833Z,82.15
2018-11-29T23:43:20.751Z,81.89
2018-11-29T23:45:49.838Z,81.22
2018-11-29T23:48:18.725Z,82.63
2018-11-29T23:50:48.503Z,82.74
2018-11-29T23:53:17.448Z,81.68
2018-11-29T23:55:46.370Z,82.22
2018-11-29T23:58:15.263Z,82.13
